Pagrindinis puslapis
METAR-TAF:

METAR-TAF

Oro uostai :

Kristianstadas, Švedija

platuma: 55-55N, ilguma: 014-05E, Aukštis: 23 m

Dabartinis oras

Ataskaita buvo paskelbta 46 minutes, ne 17:50 UTC
Vėjas 9 kt iš Rytų/Pietryčių
Temperatūra 15°C
Drėgmė 82%
Slėgis 1013 hPa
Matomumas 10 km arba daugiau

METAR: ESMK 141750Z AUTO 12009KT 9999 SCT082/// 15/12 Q1013

Laikas: 20:36 (18:36 UTC)

Prognozė

Ataskaita buvo paskelbta 7 valandos ir 18 minutes, ne 11:18 UTC
Prognozė galioja nuo 14 metu 12 UTC su 14 metu 15 UTC
Vėjas 8 kt iš Pietų/Pietryčių
Matomumas 10 km arba daugiau
Mažai debesys ne aukštis 3000 ft
Laikinai
nuo 14 metu 12 UTC su 14 metu 15 UTC
Mažai debesys ne aukštis 3000 ft, aukštai iškilę kamuoliniai debesys.

TAF: ESMK 141118Z 1412/1415 15008KT 9999 FEW030 TEMPO 1412/1415 FEW030TCU

Orai ataskaitas ir orų prognozės (METAR, TAF).

turimą stotys yra geltonos ir raudonos taškus žemėlapyje.

Perkelti pele per norėdami pamatyti stoties vardą.

Tada spustelėkite, norėdami matyti oro stebėjimo ir prognozės.

Norėdami pakeisti žemėlapį: spustelėkite ant žalios mygtukų su juodo kryžiaus žemyn,; žalią mygtuką su brūkšneliu, jei norite nutolinti; arba žalių rodyklių gretimoms žemėlapius.


METAR-TAF: